createdAt,value
2022-09-22T00:00:39.102Z,5.28
2022-09-22T00:03:11.672Z,6.15
2022-09-22T00:05:43.619Z,5.25
2022-09-22T00:08:15.585Z,5.45
2022-09-22T00:11:00.863Z,5.80
2022-09-22T00:13:38.087Z,4.80
2022-09-22T00:16:13.706Z,5.78
2022-09-22T00:18:46.492Z,5.80
2022-09-22T00:21:20.949Z,5.40
2022-09-22T00:23:55.180Z,6.50
2022-09-22T00:26:27.937Z,5.50
2022-09-22T00:29:01.555Z,5.50
2022-09-22T00:31:34.153Z,5.45
2022-09-22T00:34:13.104Z,5.55
2022-09-22T00:36:49.631Z,7.75
2022-09-22T00:39:22.134Z,7.57
2022-09-22T00:41:54.407Z,5.30
2022-09-22T00:44:37.450Z,5.85
2022-09-22T00:47:35.529Z,7.60
2022-09-22T00:50:18.262Z,5.45
2022-09-22T00:52:55.375Z,5.60
2022-09-22T00:55:39.560Z,5.90
2022-09-22T00:58:22.327Z,4.93
2022-09-22T01:01:04.395Z,4.30
2022-09-22T01:03:42.644Z,5.30
2022-09-22T01:06:21.638Z,9.68
2022-09-22T01:08:58.515Z,5.80
2022-09-22T01:11:33.386Z,5.85
2022-09-22T01:14:46.551Z,5.85
2022-09-22T01:17:55.250Z,7.22
2022-09-22T01:20:55.872Z,7.75
2022-09-22T01:23:56.902Z,5.35
2022-09-22T01:27:03.654Z,6.05
2022-09-22T01:30:15.001Z,8.95
2022-09-22T01:32:52.335Z,8.98
2022-09-22T01:35:45.258Z,7.55
2022-09-22T01:38:36.996Z,8.23
2022-09-22T01:41:37.448Z,6.80
2022-09-22T01:44:34.722Z,8.32
2022-09-22T01:47:50.732Z,6.03
2022-09-22T01:50:35.883Z,6.10
2022-09-22T01:53:18.769Z,6.20
2022-09-22T01:56:00.398Z,5.85
2022-09-22T01:58:52.826Z,5.85
2022-09-22T02:01:33.435Z,6.15
2022-09-22T02:04:16.706Z,6.50
2022-09-22T02:07:12.540Z,7.32
2022-09-22T02:09:58.585Z,6.40
2022-09-22T02:12:36.388Z,5.75
2022-09-22T02:15:28.486Z,8.95
2022-09-22T02:18:27.426Z,5.93
2022-09-22T02:21:05.110Z,6.45
2022-09-22T02:23:37.224Z,9.27
2022-09-22T02:26:10.640Z,6.95
2022-09-22T02:28:45.328Z,5.95
2022-09-22T02:31:20.476Z,5.90
2022-09-22T02:33:55.990Z,5.93
2022-09-22T02:36:56.733Z,6.15
2022-09-22T02:39:45.369Z,9.63
2022-09-22T02:42:33.051Z,7.10
2022-09-22T02:45:23.352Z,6.57
2022-09-22T02:48:04.613Z,7.82
2022-09-22T02:50:42.319Z,6.97
2022-09-22T02:53:17.458Z,7.97
2022-09-22T02:55:49.599Z,7.80
2022-09-22T02:58:21.527Z,7.75
2022-09-22T03:00:53.381Z,7.70
2022-09-22T03:03:25.258Z,6.68
2022-09-22T03:05:57.353Z,7.30
2022-09-22T03:08:30.432Z,7.75
2022-09-22T03:11:02.592Z,7.05
2022-09-22T03:13:34.793Z,6.72
2022-09-22T03:16:06.967Z,6.57
2022-09-22T03:18:39.136Z,6.72
2022-09-22T03:21:11.293Z,6.60
2022-09-22T03:23:43.213Z,6.80
2022-09-22T03:26:15.132Z,7.18
2022-09-22T03:28:47.169Z,7.30
2022-09-22T03:31:19.562Z,7.68
2022-09-22T03:33:52.986Z,7.75
2022-09-22T03:36:24.979Z,7.68
2022-09-22T03:38:57.234Z,8.45
2022-09-22T03:41:31.897Z,8.88
2022-09-22T03:44:05.933Z,9.18
2022-09-22T03:46:37.904Z,7.75
2022-09-22T03:49:10.179Z,9.38
2022-09-22T03:51:42.656Z,7.60
2022-09-22T03:54:14.867Z,7.57
2022-09-22T03:56:47.243Z,8.10
2022-09-22T03:59:19.503Z,7.93
2022-09-22T04:01:54.827Z,8.25
2022-09-22T04:04:32.587Z,7.05
2022-09-22T04:07:07.405Z,8.00
2022-09-22T04:09:39.973Z,7.60
2022-09-22T04:12:12.711Z,7.75
2022-09-22T04:14:44.605Z,7.70
2022-09-22T04:17:17.548Z,8.38
2022-09-22T04:19:51.123Z,8.90
2022-09-22T04:22:23.246Z,8.30
2022-09-22T04:24:55.309Z,7.82
2022-09-22T04:27:28.246Z,9.32
2022-09-22T04:30:00.900Z,11.18
2022-09-22T04:32:34.034Z,8.05
2022-09-22T04:35:07.378Z,7.97
2022-09-22T04:37:39.505Z,7.82
2022-09-22T04:40:12.853Z,7.65
2022-09-22T04:42:46.697Z,8.15
2022-09-22T04:45:19.228Z,7.97
2022-09-22T04:47:52.889Z,8.23
2022-09-22T04:50:25.114Z,8.73
2022-09-22T04:52:57.777Z,7.40
2022-09-22T04:55:29.763Z,9.90
2022-09-22T04:58:02.133Z,10.82
2022-09-22T05:00:34.404Z,8.40
2022-09-22T05:03:11.366Z,7.15
2022-09-22T05:05:47.048Z,8.77
2022-09-22T05:08:22.645Z,7.07
2022-09-22T05:10:55.487Z,7.63
2022-09-22T05:13:27.526Z,7.63
2022-09-22T05:16:01.344Z,7.85
2022-09-22T05:18:34.059Z,7.15
2022-09-22T05:21:07.156Z,7.32
2022-09-22T05:23:39.798Z,8.00
2022-09-22T05:26:12.134Z,7.80
2022-09-22T05:28:44.376Z,7.57
2022-09-22T05:31:17.065Z,8.75
2022-09-22T05:33:49.921Z,8.68
2022-09-22T05:36:21.915Z,8.38
2022-09-22T05:38:53.886Z,9.23
2022-09-22T05:41:25.806Z,8.25
2022-09-22T05:43:57.868Z,8.00
2022-09-22T05:46:29.807Z,8.25
2022-09-22T05:49:01.810Z,9.50
2022-09-22T05:51:33.822Z,13.50
2022-09-22T05:54:06.288Z,7.85
2022-09-22T05:56:38.794Z,8.75
2022-09-22T05:59:10.691Z,8.18
2022-09-22T06:01:43.193Z,7.65
2022-09-22T06:04:15.465Z,8.30
2022-09-22T06:06:47.798Z,8.70
2022-09-22T06:09:19.816Z,8.43
2022-09-22T06:11:52.082Z,8.45
2022-09-22T06:14:24.134Z,8.80
2022-09-22T06:16:56.073Z,7.53
2022-09-22T06:19:29.523Z,9.00
2022-09-22T06:22:02.999Z,7.43
2022-09-22T06:24:35.461Z,7.00
2022-09-22T06:27:07.463Z,6.90
2022-09-22T06:29:41.344Z,6.40
2022-09-22T06:32:13.724Z,5.90
2022-09-22T06:34:45.963Z,5.72
2022-09-22T06:37:19.850Z,5.82
2022-09-22T06:39:51.773Z,5.30
2022-09-22T06:42:23.764Z,4.82
2022-09-22T06:44:55.772Z,7.38
2022-09-22T06:47:28.320Z,4.80
2022-09-22T06:50:05.512Z,5.13
2022-09-22T06:52:38.513Z,5.85
2022-09-22T06:55:10.739Z,5.40
2022-09-22T06:57:43.483Z,4.20
2022-09-22T07:00:17.917Z,3.90
2022-09-22T07:02:50.075Z,5.00
2022-09-22T07:05:22.051Z,6.00
2022-09-22T07:07:54.018Z,6.57
2022-09-22T07:10:26.002Z,5.27
2022-09-22T07:13:00.900Z,5.03
2022-09-22T07:15:35.598Z,4.10
2022-09-22T07:18:07.749Z,4.80
2022-09-22T07:20:40.617Z,4.60
2022-09-22T07:23:17.784Z,4.90
2022-09-22T07:25:57.011Z,9.40
2022-09-22T07:28:35.089Z,5.50
2022-09-22T07:31:10.919Z,11.50
2022-09-22T07:33:46.240Z,5.50
2022-09-22T07:36:20.799Z,5.83
2022-09-22T07:38:57.467Z,5.37
2022-09-22T07:41:43.552Z,6.57
2022-09-22T07:44:34.448Z,5.30
2022-09-22T07:47:44.705Z,5.30
2022-09-22T07:50:36.480Z,4.50
2022-09-22T07:53:08.633Z,5.63
2022-09-22T07:55:40.615Z,4.13
2022-09-22T07:58:17.144Z,4.83
2022-09-22T08:00:49.479Z,4.93
2022-09-22T08:03:22.161Z,5.70
2022-09-22T08:06:06.121Z,5.47
2022-09-22T08:08:53.806Z,4.73
2022-09-22T08:11:29.049Z,4.70
2022-09-22T08:14:04.788Z,4.67
2022-09-22T08:16:41.180Z,4.93
2022-09-22T08:19:14.488Z,5.23
2022-09-22T08:21:49.512Z,5.37
2022-09-22T08:24:23.819Z,5.17
2022-09-22T08:26:56.416Z,7.60
2022-09-22T08:29:28.363Z,5.33
2022-09-22T08:32:01.063Z,5.27
2022-09-22T08:34:33.384Z,6.17
2022-09-22T08:37:05.400Z,5.47
2022-09-22T08:39:37.946Z,5.63
2022-09-22T08:42:22.616Z,5.57
2022-09-22T08:44:58.858Z,5.03
2022-09-22T08:48:08.285Z,12.67
2022-09-22T08:51:23.901Z,5.80
2022-09-22T08:54:17.108Z,5.38
2022-09-22T08:57:10.740Z,6.53
2022-09-22T09:00:14.845Z,5.72
2022-09-22T09:03:12.220Z,4.90
2022-09-22T09:06:34.591Z,5.82
2022-09-22T09:09:32.368Z,7.40
2022-09-22T09:12:25.891Z,5.20
2022-09-22T09:15:28.656Z,9.18
2022-09-22T09:18:19.337Z,3.85
2022-09-22T09:20:59.469Z,3.63
2022-09-22T09:26:39.829Z,3.03
2022-09-22T09:29:20.998Z,3.20
2022-09-22T09:31:57.011Z,4.00
2022-09-22T09:34:30.764Z,3.35
2022-09-22T09:37:07.854Z,3.00
2022-09-22T09:39:45.653Z,3.28
2022-09-22T09:42:26.985Z,4.27
2022-09-22T09:45:03.523Z,3.25
2022-09-22T09:47:47.654Z,3.38
2022-09-22T09:50:39.650Z,2.40
2022-09-22T09:53:41.267Z,3.80
2022-09-22T09:56:37.215Z,3.17
2022-09-22T09:59:47.929Z,4.90
2022-09-22T10:02:50.022Z,2.85
2022-09-22T10:05:37.629Z,3.30
2022-09-22T10:08:24.474Z,2.72
2022-09-22T10:10:59.264Z,3.70
2022-09-22T10:13:38.475Z,2.50
2022-09-22T10:16:20.997Z,2.80
2022-09-22T10:18:58.595Z,3.17
2022-09-22T10:21:50.706Z,2.53
2022-09-22T10:24:32.065Z,2.13
2022-09-22T10:27:06.835Z,2.20
2022-09-22T10:30:21.383Z,2.58
2022-09-22T10:33:13.614Z,2.85
2022-09-22T10:36:12.112Z,2.22
2022-09-22T10:38:45.042Z,1.80
2022-09-22T10:41:20.369Z,1.80
2022-09-22T10:44:37.982Z,3.28
2022-09-22T10:47:32.623Z,4.33
2022-09-22T10:50:36.638Z,1.97
2022-09-22T10:53:37.663Z,1.70
2022-09-22T10:56:38.981Z,1.80
2022-09-22T10:59:40.743Z,2.33
2022-09-22T11:03:08.015Z,1.70
2022-09-22T11:06:37.220Z,1.97
2022-09-22T11:10:14.036Z,2.37
2022-09-22T11:13:14.745Z,1.90
2022-09-22T11:16:28.719Z,1.80
2022-09-22T11:19:39.106Z,2.13
2022-09-22T11:22:47.089Z,1.97
2022-09-22T11:25:57.236Z,2.40
2022-09-22T11:28:57.564Z,1.90
2022-09-22T11:31:54.865Z,1.70
2022-09-22T11:34:53.072Z,1.90
2022-09-22T11:37:52.224Z,1.80
2022-09-22T11:40:50.327Z,1.97
2022-09-22T11:43:33.575Z,2.10
2022-09-22T11:46:45.014Z,1.70
2022-09-22T11:49:51.173Z,1.60
2022-09-22T11:53:00.166Z,1.63
2022-09-22T11:56:05.053Z,1.77
2022-09-22T11:59:02.561Z,1.60
2022-09-22T12:01:57.428Z,1.40
2022-09-22T12:05:08.262Z,1.53
2022-09-22T12:08:13.058Z,2.83
2022-09-22T12:10:48.528Z,1.33
2022-09-22T12:13:25.571Z,1.50
2022-09-22T12:16:18.798Z,1.70
2022-09-22T12:19:18.419Z,6.50
2022-09-22T12:22:20.677Z,1.63
2022-09-22T12:24:58.478Z,1.60
2022-09-22T12:27:30.661Z,1.40
2022-09-22T12:30:12.929Z,1.50
2022-09-22T12:32:51.856Z,1.37
2022-09-22T12:35:31.474Z,1.27
2022-09-22T12:38:04.938Z,1.70
2022-09-22T12:40:41.457Z,2.60
2022-09-22T12:43:23.189Z,1.67
2022-09-22T12:45:57.642Z,1.37
2022-09-22T12:48:37.304Z,1.60
2022-09-22T12:51:24.603Z,1.60
2022-09-22T12:54:27.538Z,1.80
2022-09-22T12:57:09.374Z,1.60
2022-09-22T13:00:16.159Z,1.57
2022-09-22T13:02:53.982Z,2.80
2022-09-22T13:05:27.356Z,1.70
2022-09-22T13:08:02.354Z,1.80
2022-09-22T13:10:34.909Z,3.77
2022-09-22T13:13:32.649Z,1.43
2022-09-22T13:16:16.538Z,1.50
2022-09-22T13:19:10.020Z,1.40
2022-09-22T13:21:42.184Z,1.47
2022-09-22T13:24:19.504Z,2.60
2022-09-22T13:27:04.195Z,3.50
2022-09-22T13:29:36.481Z,1.40
2022-09-22T13:32:21.625Z,1.80
2022-09-22T13:34:57.539Z,1.70
2022-09-22T13:37:31.316Z,1.97
2022-09-22T13:40:04.229Z,1.63
2022-09-22T13:42:43.044Z,1.53
2022-09-22T13:45:21.408Z,1.30
2022-09-22T13:48:08.429Z,2.23
2022-09-22T13:51:07.573Z,1.60
2022-09-22T13:53:51.028Z,1.60
2022-09-22T13:56:26.526Z,1.60
2022-09-22T13:59:01.785Z,1.77
2022-09-22T14:01:33.998Z,1.40
2022-09-22T14:04:27.766Z,2.10
2022-09-22T14:07:03.239Z,1.87
2022-09-22T14:09:40.230Z,1.30
2022-09-22T14:12:12.642Z,1.53
2022-09-22T14:14:44.878Z,3.57
2022-09-22T14:17:24.394Z,2.27
2022-09-22T14:20:01.338Z,1.90
2022-09-22T14:22:42.310Z,1.50
2022-09-22T14:25:20.209Z,1.43
2022-09-22T14:27:59.214Z,1.30
2022-09-22T14:30:31.846Z,1.60
2022-09-22T14:33:05.141Z,1.70
2022-09-22T14:35:37.358Z,1.50
2022-09-22T14:38:16.051Z,1.70
2022-09-22T14:40:57.916Z,1.60
2022-09-22T14:43:41.923Z,1.40
2022-09-22T14:46:41.805Z,1.40
2022-09-22T14:49:32.510Z,1.73
2022-09-22T14:52:30.498Z,2.60
2022-09-22T14:55:14.494Z,1.77
2022-09-22T14:58:03.397Z,1.50
2022-09-22T15:01:42.320Z,1.90
2022-09-22T15:04:38.643Z,1.40
2022-09-22T15:07:25.937Z,1.70
2022-09-22T15:10:05.224Z,1.60
2022-09-22T15:12:51.848Z,1.40
2022-09-22T15:15:27.043Z,3.10
2022-09-22T15:18:16.666Z,1.87
2022-09-22T15:20:55.785Z,1.60
2022-09-22T15:23:49.866Z,1.60
2022-09-22T15:26:25.827Z,1.60
2022-09-22T15:29:01.688Z,3.33
2022-09-22T15:31:36.793Z,5.37
2022-09-22T15:34:09.989Z,1.97
2022-09-22T15:36:46.620Z,2.73
2022-09-22T15:39:23.411Z,1.50
2022-09-22T15:41:55.902Z,1.73
2022-09-22T15:44:28.483Z,1.50
2022-09-22T15:47:03.697Z,1.90
2022-09-22T15:49:37.063Z,1.50
2022-09-22T15:52:10.686Z,1.93
2022-09-22T15:54:44.907Z,1.50
2022-09-22T15:57:35.223Z,2.80
2022-09-22T16:00:17.028Z,1.80
2022-09-22T16:02:53.539Z,1.53
2022-09-22T16:05:26.339Z,1.30
2022-09-22T16:08:00.013Z,2.37
2022-09-22T16:10:32.459Z,2.63
2022-09-22T16:13:04.557Z,2.20
2022-09-22T16:15:39.864Z,2.13
2022-09-22T16:18:12.283Z,2.10
2022-09-22T16:20:44.289Z,2.23
2022-09-22T16:23:19.589Z,1.70
2022-09-22T16:25:54.985Z,2.23
2022-09-22T16:28:27.607Z,2.00
2022-09-22T16:31:05.110Z,1.73
2022-09-22T16:33:38.582Z,1.83
2022-09-22T16:36:10.698Z,2.30
2022-09-22T16:38:45.332Z,1.80
2022-09-22T16:41:26.274Z,1.87
2022-09-22T16:44:02.098Z,1.77
2022-09-22T16:46:35.706Z,1.83
2022-09-22T16:49:12.224Z,2.30
2022-09-22T16:51:49.928Z,1.93
2022-09-22T16:54:25.312Z,2.33
2022-09-22T16:56:57.605Z,2.40
2022-09-22T16:59:29.940Z,2.50
2022-09-22T17:02:02.202Z,2.47
2022-09-22T17:04:35.095Z,2.10
2022-09-22T17:07:07.704Z,4.38
2022-09-22T17:09:41.233Z,2.13
2022-09-22T17:12:14.102Z,2.10
2022-09-22T17:14:49.148Z,2.28
2022-09-22T17:17:21.701Z,2.40
2022-09-22T17:19:55.457Z,2.10
2022-09-22T17:22:27.546Z,2.05
2022-09-22T17:25:00.174Z,2.25
2022-09-22T17:27:32.729Z,2.40
2022-09-22T17:30:07.863Z,2.33
2022-09-22T17:32:42.230Z,3.13
2022-09-22T17:35:15.421Z,2.50
2022-09-22T17:37:49.473Z,2.30
2022-09-22T17:40:23.319Z,2.20
2022-09-22T17:43:00.364Z,2.90
2022-09-22T17:45:35.197Z,2.60
2022-09-22T17:48:26.600Z,2.55
2022-09-22T17:52:07.213Z,2.92
2022-09-22T17:55:12.699Z,2.83
2022-09-22T17:57:51.829Z,2.20
2022-09-22T18:00:25.980Z,5.93
2022-09-22T18:02:58.516Z,2.53
2022-09-22T18:05:32.528Z,2.20
2022-09-22T18:08:06.998Z,2.50
2022-09-22T18:10:40.494Z,2.70
2022-09-22T18:13:14.912Z,2.92
2022-09-22T18:15:47.986Z,2.78
2022-09-22T18:18:20.889Z,3.30
2022-09-22T18:20:53.985Z,3.10
2022-09-22T18:23:28.532Z,2.55
2022-09-22T18:26:01.934Z,3.42
2022-09-22T18:28:37.269Z,2.58
2022-09-22T18:31:10.112Z,2.80
2022-09-22T18:33:45.238Z,3.45
2022-09-22T18:36:17.204Z,3.25
2022-09-22T18:38:49.300Z,2.85
2022-09-22T18:41:23.474Z,3.58
2022-09-22T18:43:57.151Z,3.03
2022-09-22T18:46:34.692Z,3.97
2022-09-22T18:49:08.493Z,4.00
2022-09-22T18:51:44.656Z,4.15
2022-09-22T18:54:22.083Z,3.67
2022-09-22T18:56:54.158Z,3.90
2022-09-22T18:59:27.455Z,4.97
2022-09-22T19:02:00.134Z,4.35
2022-09-22T19:04:32.560Z,6.70
2022-09-22T19:07:23.061Z,4.30
2022-09-22T19:10:13.635Z,3.95
2022-09-22T19:12:49.600Z,5.75
2022-09-22T19:15:23.199Z,6.60
2022-09-22T19:17:56.516Z,4.03
2022-09-22T19:20:28.892Z,5.28
2022-09-22T19:23:02.843Z,3.97
2022-09-22T19:25:38.844Z,4.32
2022-09-22T19:28:13.688Z,4.35
2022-09-22T19:30:46.672Z,3.75
2022-09-22T19:33:19.053Z,4.50
2022-09-22T19:35:51.256Z,3.72
2022-09-22T19:38:25.417Z,4.20
2022-09-22T19:40:59.558Z,4.30
2022-09-22T19:43:32.432Z,4.47
2022-09-22T19:46:04.830Z,3.92
2022-09-22T19:48:37.911Z,4.00
2022-09-22T19:51:10.537Z,6.45
2022-09-22T19:53:42.793Z,4.57
2022-09-22T19:56:15.616Z,5.05
2022-09-22T19:58:51.397Z,5.20
2022-09-22T20:01:43.804Z,5.90
2022-09-22T20:04:35.244Z,7.47
2022-09-22T20:07:11.062Z,6.43
2022-09-22T20:09:43.660Z,6.85
2022-09-22T20:12:16.159Z,8.65
2022-09-22T20:14:48.361Z,12.35
2022-09-22T20:17:23.280Z,15.35
2022-09-22T20:19:55.496Z,14.75
2022-09-22T20:22:29.247Z,11.95
2022-09-22T20:25:01.909Z,10.65
2022-09-22T20:27:37.165Z,8.95
2022-09-22T20:30:33.068Z,7.47
2022-09-22T20:33:06.507Z,8.25
2022-09-22T20:35:52.243Z,8.40
2022-09-22T20:38:25.885Z,8.57
2022-09-22T20:41:01.259Z,6.07
2022-09-22T20:43:34.640Z,6.80
2022-09-22T20:46:07.140Z,6.15
2022-09-22T20:48:40.110Z,5.90
2022-09-22T20:51:13.080Z,7.05
2022-09-22T20:53:45.373Z,6.13
2022-09-22T20:56:18.127Z,6.03
2022-09-22T20:58:50.257Z,5.93
2022-09-22T21:01:22.441Z,5.70
2022-09-22T21:03:55.890Z,6.40
2022-09-22T21:06:27.986Z,5.97
2022-09-22T21:09:19.873Z,6.30
2022-09-22T21:12:13.665Z,5.80
2022-09-22T21:14:45.970Z,6.68
2022-09-22T21:17:18.181Z,7.45
2022-09-22T21:19:50.733Z,6.03
2022-09-22T21:22:22.876Z,6.68
2022-09-22T21:24:56.531Z,6.30
2022-09-22T21:27:29.107Z,6.72
2022-09-22T21:30:01.449Z,6.57
2022-09-22T21:32:33.583Z,5.97
2022-09-22T21:35:06.692Z,6.68
2022-09-22T21:37:39.417Z,6.53
2022-09-22T21:40:11.580Z,8.05
2022-09-22T21:42:45.043Z,7.03
2022-09-22T21:45:19.638Z,6.88
2022-09-22T21:47:52.221Z,5.90
2022-09-22T21:50:24.397Z,6.40
2022-09-22T21:52:56.425Z,6.43
2022-09-22T21:55:30.256Z,7.30
2022-09-22T21:58:02.188Z,6.78
2022-09-22T22:00:51.279Z,6.63
2022-09-22T22:03:31.593Z,6.70
2022-09-22T22:06:22.742Z,6.75
2022-09-22T22:09:01.458Z,6.18
2022-09-22T22:11:40.541Z,6.40
2022-09-22T22:14:19.491Z,7.05
2022-09-22T22:16:54.374Z,9.80
2022-09-22T22:19:29.040Z,7.40
2022-09-22T22:22:01.765Z,6.25
2022-09-22T22:24:43.440Z,6.85
2022-09-22T22:27:16.816Z,7.95
2022-09-22T22:29:48.963Z,7.45
2022-09-22T22:32:22.135Z,7.25
2022-09-22T22:35:07.234Z,7.07
2022-09-22T22:37:40.009Z,7.22
2022-09-22T22:40:16.488Z,6.70
2022-09-22T22:42:49.177Z,8.40
2022-09-22T22:45:21.168Z,6.60
2022-09-22T22:47:53.121Z,7.95
2022-09-22T22:50:25.713Z,7.18
2022-09-22T22:52:57.671Z,7.13
2022-09-22T22:55:29.675Z,7.43
2022-09-22T22:58:02.003Z,7.60
2022-09-22T23:00:34.438Z,7.80
2022-09-22T23:03:06.443Z,9.15
2022-09-22T23:05:43.116Z,7.50
2022-09-22T23:08:27.494Z,8.27
2022-09-22T23:11:04.545Z,7.95
2022-09-22T23:13:53.045Z,8.38
2022-09-22T23:16:29.124Z,8.63
2022-09-22T23:19:09.342Z,8.13
2022-09-22T23:21:45.153Z,7.90
2022-09-22T23:24:19.374Z,7.93
2022-09-22T23:26:51.821Z,8.50
2022-09-22T23:29:25.072Z,7.55
2022-09-22T23:31:57.040Z,7.95
2022-09-22T23:34:28.984Z,8.48
2022-09-22T23:37:01.059Z,9.02
2022-09-22T23:39:33.243Z,7.90
2022-09-22T23:42:05.571Z,11.63
2022-09-22T23:44:38.178Z,9.13
2022-09-22T23:47:13.192Z,9.18
2022-09-22T23:49:48.032Z,9.10
2022-09-22T23:52:27.083Z,8.40
2022-09-22T23:54:59.103Z,8.73
2022-09-22T23:57:31.560Z,9.30
